sensor_id;sensor_type;location;lat;lon;timestamp;P1;durP1;ratioP1;P2;durP2;ratioP2
55114;SDS011;41010;53.252;5.786;2024-02-26T00:02:26;8.63;;;4.80;;
55114;SDS011;41010;53.252;5.786;2024-02-26T00:04:53;7.78;;;4.43;;
55114;SDS011;41010;53.252;5.786;2024-02-26T00:07:20;7.72;;;4.00;;
55114;SDS011;41010;53.252;5.786;2024-02-26T00:09:49;12.57;;;4.20;;
55114;SDS011;41010;53.252;5.786;2024-02-26T00:12:16;5.65;;;3.55;;
55114;SDS011;41010;53.252;5.786;2024-02-26T00:14:43;8.95;;;3.88;;
55114;SDS011;41010;53.252;5.786;2024-02-26T00:17:13;10.20;;;4.68;;
55114;SDS011;41010;53.252;5.786;2024-02-26T00:19:40;7.53;;;3.78;;
55114;SDS011;41010;53.252;5.786;2024-02-26T00:22:07;6.97;;;3.85;;
55114;SDS011;41010;53.252;5.786;2024-02-26T00:24:35;6.07;;;3.47;;
55114;SDS011;41010;53.252;5.786;2024-02-26T00:27:04;5.82;;;3.72;;
55114;SDS011;41010;53.252;5.786;2024-02-26T00:29:31;5.53;;;3.63;;
55114;SDS011;41010;53.252;5.786;2024-02-26T00:31:58;4.63;;;2.88;;
55114;SDS011;41010;53.252;5.786;2024-02-26T00:34:25;6.18;;;2.83;;
55114;SDS011;41010;53.252;5.786;2024-02-26T00:36:53;5.20;;;3.00;;
55114;SDS011;41010;53.252;5.786;2024-02-26T00:39:20;6.15;;;2.88;;
55114;SDS011;41010;53.252;5.786;2024-02-26T00:41:47;5.15;;;2.80;;
55114;SDS011;41010;53.252;5.786;2024-02-26T00:44:18;4.70;;;2.78;;
55114;SDS011;41010;53.252;5.786;2024-02-26T00:46:45;3.17;;;2.13;;
55114;SDS011;41010;53.252;5.786;2024-02-26T00:49:12;11.75;;;2.22;;
55114;SDS011;41010;53.252;5.786;2024-02-26T00:51:39;5.90;;;2.20;;
55114;SDS011;41010;53.252;5.786;2024-02-26T00:54:07;6.72;;;2.50;;
55114;SDS011;41010;53.252;5.786;2024-02-26T00:56:34;4.85;;;2.78;;
55114;SDS011;41010;53.252;5.786;2024-02-26T00:59:01;8.75;;;3.22;;
55114;SDS011;41010;53.252;5.786;2024-02-26T01:01:30;7.88;;;3.05;;
55114;SDS011;41010;53.252;5.786;2024-02-26T01:03:57;7.25;;;3.00;;
55114;SDS011;41010;53.252;5.786;2024-02-26T01:06:24;4.95;;;2.90;;
55114;SDS011;41010;53.252;5.786;2024-02-26T01:08:51;7.00;;;2.42;;
55114;SDS011;41010;53.252;5.786;2024-02-26T01:11:19;6.75;;;2.58;;
55114;SDS011;41010;53.252;5.786;2024-02-26T01:13:46;8.32;;;2.20;;
55114;SDS011;41010;53.252;5.786;2024-02-26T01:16:13;3.08;;;2.28;;
55114;SDS011;41010;53.252;5.786;2024-02-26T01:18:42;6.03;;;2.45;;
55114;SDS011;41010;53.252;5.786;2024-02-26T01:21:09;5.03;;;3.08;;
55114;SDS011;41010;53.252;5.786;2024-02-26T01:23:36;3.25;;;2.63;;
55114;SDS011;41010;53.252;5.786;2024-02-26T01:26:04;4.32;;;2.60;;
55114;SDS011;41010;53.252;5.786;2024-02-26T01:28:31;5.40;;;2.75;;
55114;SDS011;41010;53.252;5.786;2024-02-26T01:30:58;3.38;;;2.33;;
55114;SDS011;41010;53.252;5.786;2024-02-26T01:33:26;4.63;;;2.78;;
55114;SDS011;41010;53.252;5.786;2024-02-26T01:35:54;4.55;;;2.67;;
55114;SDS011;41010;53.252;5.786;2024-02-26T01:38:22;6.32;;;2.72;;
55114;SDS011;41010;53.252;5.786;2024-02-26T01:40:49;4.40;;;2.67;;
55114;SDS011;41010;53.252;5.786;2024-02-26T01:43:16;4.63;;;2.80;;
55114;SDS011;41010;53.252;5.786;2024-02-26T01:45:43;4.00;;;2.53;;
55114;SDS011;41010;53.252;5.786;2024-02-26T01:48:10;7.80;;;2.42;;
55114;SDS011;41010;53.252;5.786;2024-02-26T01:50:38;9.05;;;2.50;;
55114;SDS011;41010;53.252;5.786;2024-02-26T01:53:08;3.50;;;2.40;;
55114;SDS011;41010;53.252;5.786;2024-02-26T01:55:36;5.68;;;2.05;;
55114;SDS011;41010;53.252;5.786;2024-02-26T01:58:03;4.40;;;2.00;;
55114;SDS011;41010;53.252;5.786;2024-02-26T02:00:31;3.83;;;2.50;;
55114;SDS011;41010;53.252;5.786;2024-02-26T02:02:59;5.45;;;2.40;;
55114;SDS011;41010;53.252;5.786;2024-02-26T02:05:26;3.92;;;1.98;;
55114;SDS011;41010;53.252;5.786;2024-02-26T02:07:54;4.10;;;2.08;;
55114;SDS011;41010;53.252;5.786;2024-02-26T02:10:22;5.65;;;2.22;;
55114;SDS011;41010;53.252;5.786;2024-02-26T02:12:50;3.58;;;2.30;;
55114;SDS011;41010;53.252;5.786;2024-02-26T02:15:19;8.05;;;2.40;;
55114;SDS011;41010;53.252;5.786;2024-02-26T02:17:47;5.82;;;2.15;;
55114;SDS011;41010;53.252;5.786;2024-02-26T02:20:15;6.70;;;2.10;;
55114;SDS011;41010;53.252;5.786;2024-02-26T02:22:44;5.15;;;2.17;;
55114;SDS011;41010;53.252;5.786;2024-02-26T02:25:11;3.97;;;2.17;;
55114;SDS011;41010;53.252;5.786;2024-02-26T02:27:39;5.55;;;2.40;;
55114;SDS011;41010;53.252;5.786;2024-02-26T02:30:06;4.00;;;2.13;;
55114;SDS011;41010;53.252;5.786;2024-02-26T02:32:34;6.28;;;2.30;;
55114;SDS011;41010;53.252;5.786;2024-02-26T02:35:02;4.35;;;2.50;;
55114;SDS011;41010;53.252;5.786;2024-02-26T02:37:29;9.10;;;2.22;;
55114;SDS011;41010;53.252;5.786;2024-02-26T02:39:58;7.20;;;2.50;;
55114;SDS011;41010;53.252;5.786;2024-02-26T02:42:25;11.77;;;2.70;;
55114;SDS011;41010;53.252;5.786;2024-02-26T02:44:52;3.10;;;2.00;;
55114;SDS011;41010;53.252;5.786;2024-02-26T02:47:20;3.97;;;2.20;;
55114;SDS011;41010;53.252;5.786;2024-02-26T02:49:47;4.88;;;2.00;;
55114;SDS011;41010;53.252;5.786;2024-02-26T02:52:14;9.80;;;2.17;;
55114;SDS011;41010;53.252;5.786;2024-02-26T02:54:42;4.55;;;1.98;;
55114;SDS011;41010;53.252;5.786;2024-02-26T02:57:10;7.70;;;2.70;;
55114;SDS011;41010;53.252;5.786;2024-02-26T02:59:38;4.90;;;2.20;;
55114;SDS011;41010;53.252;5.786;2024-02-26T03:02:05;3.78;;;2.17;;
55114;SDS011;41010;53.252;5.786;2024-02-26T03:04:32;3.97;;;2.20;;
55114;SDS011;41010;53.252;5.786;2024-02-26T03:07:00;4.95;;;2.20;;
55114;SDS011;41010;53.252;5.786;2024-02-26T03:09:27;4.05;;;2.05;;
55114;SDS011;41010;53.252;5.786;2024-02-26T03:11:54;5.88;;;1.90;;
55114;SDS011;41010;53.252;5.786;2024-02-26T03:14:23;8.23;;;2.28;;
55114;SDS011;41010;53.252;5.786;2024-02-26T03:16:53;5.45;;;2.22;;
55114;SDS011;41010;53.252;5.786;2024-02-26T03:19:21;6.25;;;2.25;;
55114;SDS011;41010;53.252;5.786;2024-02-26T03:21:48;10.52;;;2.30;;
55114;SDS011;41010;53.252;5.786;2024-02-26T03:24:16;5.40;;;2.20;;
55114;SDS011;41010;53.252;5.786;2024-02-26T03:26:43;5.03;;;2.47;;
55114;SDS011;41010;53.252;5.786;2024-02-26T03:29:10;6.00;;;2.25;;
55114;SDS011;41010;53.252;5.786;2024-02-26T03:31:39;6.82;;;2.20;;
55114;SDS011;41010;53.252;5.786;2024-02-26T03:34:06;3.35;;;1.98;;
55114;SDS011;41010;53.252;5.786;2024-02-26T03:36:33;3.30;;;2.00;;
55114;SDS011;41010;53.252;5.786;2024-02-26T03:39:00;4.85;;;2.00;;
55114;SDS011;41010;53.252;5.786;2024-02-26T03:41:29;3.15;;;1.88;;
55114;SDS011;41010;53.252;5.786;2024-02-26T03:43:57;9.10;;;2.55;;
55114;SDS011;41010;53.252;5.786;2024-02-26T03:46:24;3.47;;;1.60;;
55114;SDS011;41010;53.252;5.786;2024-02-26T03:48:53;3.17;;;1.88;;
55114;SDS011;41010;53.252;5.786;2024-02-26T03:51:20;7.30;;;1.80;;
55114;SDS011;41010;53.252;5.786;2024-02-26T03:53:47;2.70;;;1.80;;
55114;SDS011;41010;53.252;5.786;2024-02-26T03:56:14;2.75;;;1.90;;
55114;SDS011;41010;53.252;5.786;2024-02-26T03:58:42;3.20;;;2.00;;
55114;SDS011;41010;53.252;5.786;2024-02-26T04:01:09;4.90;;;2.42;;
55114;SDS011;41010;53.252;5.786;2024-02-26T04:03:37;4.18;;;2.00;;
55114;SDS011;41010;53.252;5.786;2024-02-26T04:06:08;5.38;;;2.67;;
55114;SDS011;41010;53.252;5.786;2024-02-26T04:08:35;4.25;;;2.95;;
55114;SDS011;41010;53.252;5.786;2024-02-26T04:11:03;5.00;;;2.70;;
55114;SDS011;41010;53.252;5.786;2024-02-26T04:13:32;5.20;;;2.85;;
55114;SDS011;41010;53.252;5.786;2024-02-26T04:15:59;5.35;;;2.90;;
55114;SDS011;41010;53.252;5.786;2024-02-26T04:18:27;6.70;;;3.05;;
55114;SDS011;41010;53.252;5.786;2024-02-26T04:20:55;5.35;;;2.95;;
55114;SDS011;41010;53.252;5.786;2024-02-26T04:23:24;7.45;;;3.40;;
55114;SDS011;41010;53.252;5.786;2024-02-26T04:25:51;5.72;;;3.10;;
55114;SDS011;41010;53.252;5.786;2024-02-26T04:28:19;6.10;;;3.90;;
55114;SDS011;41010;53.252;5.786;2024-02-26T04:30:47;5.43;;;3.45;;
55114;SDS011;41010;53.252;5.786;2024-02-26T04:33:14;6.60;;;3.47;;
55114;SDS011;41010;53.252;5.786;2024-02-26T04:35:42;6.28;;;3.50;;
55114;SDS011;41010;53.252;5.786;2024-02-26T04:38:09;7.07;;;3.67;;
55114;SDS011;41010;53.252;5.786;2024-02-26T04:40:37;6.15;;;3.38;;
55114;SDS011;41010;53.252;5.786;2024-02-26T04:43:05;6.18;;;3.70;;
55114;SDS011;41010;53.252;5.786;2024-02-26T04:45:32;5.45;;;3.70;;
55114;SDS011;41010;53.252;5.786;2024-02-26T04:47:59;6.45;;;3.45;;
55114;SDS011;41010;53.252;5.786;2024-02-26T04:50:27;8.98;;;3.63;;
55114;SDS011;41010;53.252;5.786;2024-02-26T04:52:54;6.97;;;3.55;;
55114;SDS011;41010;53.252;5.786;2024-02-26T04:55:21;5.68;;;3.30;;
55114;SDS011;41010;53.252;5.786;2024-02-26T04:57:50;6.55;;;3.28;;
55114;SDS011;41010;53.252;5.786;2024-02-26T05:00:17;7.60;;;3.38;;
55114;SDS011;41010;53.252;5.786;2024-02-26T05:02:45;5.82;;;3.50;;
55114;SDS011;41010;53.252;5.786;2024-02-26T05:05:13;4.50;;;3.28;;
55114;SDS011;41010;53.252;5.786;2024-02-26T05:07:40;6.65;;;3.42;;
55114;SDS011;41010;53.252;5.786;2024-02-26T05:10:08;5.60;;;3.60;;
55114;SDS011;41010;53.252;5.786;2024-02-26T05:12:36;6.75;;;3.60;;
55114;SDS011;41010;53.252;5.786;2024-02-26T05:15:05;6.30;;;3.40;;
55114;SDS011;41010;53.252;5.786;2024-02-26T05:17:33;5.30;;;3.03;;
55114;SDS011;41010;53.252;5.786;2024-02-26T05:20:00;6.88;;;2.70;;
55114;SDS011;41010;53.252;5.786;2024-02-26T05:22:27;6.88;;;2.30;;
55114;SDS011;41010;53.252;5.786;2024-02-26T05:24:55;3.45;;;2.10;;
55114;SDS011;41010;53.252;5.786;2024-02-26T05:27:22;6.47;;;2.03;;
55114;SDS011;41010;53.252;5.786;2024-02-26T05:29:49;4.53;;;2.05;;
55114;SDS011;41010;53.252;5.786;2024-02-26T05:32:18;4.57;;;1.90;;
55114;SDS011;41010;53.252;5.786;2024-02-26T05:34:45;9.38;;;1.75;;
55114;SDS011;41010;53.252;5.786;2024-02-26T05:37:12;5.10;;;1.88;;
55114;SDS011;41010;53.252;5.786;2024-02-26T05:39:40;5.65;;;2.10;;
55114;SDS011;41010;53.252;5.786;2024-02-26T05:42:07;2.97;;;1.40;;
55114;SDS011;41010;53.252;5.786;2024-02-26T05:44:34;4.45;;;1.83;;
55114;SDS011;41010;53.252;5.786;2024-02-26T05:47:02;5.47;;;1.88;;
55114;SDS011;41010;53.252;5.786;2024-02-26T05:49:31;5.15;;;1.73;;
55114;SDS011;41010;53.252;5.786;2024-02-26T05:51:58;4.47;;;1.80;;
55114;SDS011;41010;53.252;5.786;2024-02-26T05:54:25;7.53;;;2.00;;
55114;SDS011;41010;53.252;5.786;2024-02-26T05:56:53;5.35;;;1.42;;
55114;SDS011;41010;53.252;5.786;2024-02-26T05:59:20;6.05;;;1.40;;
55114;SDS011;41010;53.252;5.786;2024-02-26T06:01:47;4.57;;;1.50;;
55114;SDS011;41010;53.252;5.786;2024-02-26T06:04:14;2.90;;;1.60;;
55114;SDS011;41010;53.252;5.786;2024-02-26T06:06:43;7.72;;;1.58;;
55114;SDS011;41010;53.252;5.786;2024-02-26T06:09:11;3.47;;;1.70;;
55114;SDS011;41010;53.252;5.786;2024-02-26T06:11:39;5.97;;;1.73;;
55114;SDS011;41010;53.252;5.786;2024-02-26T06:14:06;4.13;;;1.77;;
55114;SDS011;41010;53.252;5.786;2024-02-26T06:16:33;5.10;;;1.48;;
55114;SDS011;41010;53.252;5.786;2024-02-26T06:19:01;2.38;;;1.48;;
55114;SDS011;41010;53.252;5.786;2024-02-26T06:21:29;6.90;;;1.58;;
55114;SDS011;41010;53.252;5.786;2024-02-26T06:23:57;7.47;;;1.38;;
55114;SDS011;41010;53.252;5.786;2024-02-26T06:26:25;6.60;;;1.42;;
55114;SDS011;41010;53.252;5.786;2024-02-26T06:28:53;4.03;;;1.10;;
55114;SDS011;41010;53.252;5.786;2024-02-26T06:31:21;2.80;;;0.95;;
55114;SDS011;41010;53.252;5.786;2024-02-26T06:33:48;2.63;;;0.95;;
55114;SDS011;41010;53.252;5.786;2024-02-26T06:36:15;7.18;;;1.00;;
55114;SDS011;41010;53.252;5.786;2024-02-26T06:38:43;4.63;;;1.10;;
55114;SDS011;41010;53.252;5.786;2024-02-26T06:41:12;5.95;;;1.35;;
55114;SDS011;41010;53.252;5.786;2024-02-26T06:43:39;3.72;;;1.23;;
55114;SDS011;41010;53.252;5.786;2024-02-26T06:46:06;4.22;;;1.02;;
55114;SDS011;41010;53.252;5.786;2024-02-26T06:48:33;3.05;;;0.98;;
55114;SDS011;41010;53.252;5.786;2024-02-26T06:51:02;2.53;;;1.00;;
55114;SDS011;41010;53.252;5.786;2024-02-26T06:53:29;3.88;;;1.13;;
55114;SDS011;41010;53.252;5.786;2024-02-26T06:55:56;2.08;;;1.30;;
55114;SDS011;41010;53.252;5.786;2024-02-26T06:58:25;2.25;;;1.00;;
55114;SDS011;41010;53.252;5.786;2024-02-26T07:00:52;4.75;;;1.42;;
55114;SDS011;41010;53.252;5.786;2024-02-26T07:03:20;2.25;;;1.20;;
55114;SDS011;41010;53.252;5.786;2024-02-26T07:05:47;3.92;;;1.40;;
55114;SDS011;41010;53.252;5.786;2024-02-26T07:08:15;2.80;;;1.60;;
55114;SDS011;41010;53.252;5.786;2024-02-26T07:10:42;6.00;;;1.50;;
55114;SDS011;41010;53.252;5.786;2024-02-26T07:13:10;6.25;;;1.70;;
55114;SDS011;41010;53.252;5.786;2024-02-26T07:15:38;7.35;;;1.50;;
55114;SDS011;41010;53.252;5.786;2024-02-26T07:18:06;8.52;;;1.40;;
55114;SDS011;41010;53.252;5.786;2024-02-26T07:20:33;4.63;;;1.17;;
55114;SDS011;41010;53.252;5.786;2024-02-26T07:23:01;4.93;;;1.63;;
55114;SDS011;41010;53.252;5.786;2024-02-26T07:25:28;4.63;;;1.77;;
55114;SDS011;41010;53.252;5.786;2024-02-26T07:27:56;6.20;;;1.50;;
55114;SDS011;41010;53.252;5.786;2024-02-26T07:30:23;2.22;;;1.13;;
55114;SDS011;41010;53.252;5.786;2024-02-26T07:32:51;3.47;;;1.23;;
55114;SDS011;41010;53.252;5.786;2024-02-26T07:35:19;9.15;;;1.67;;
55114;SDS011;41010;53.252;5.786;2024-02-26T07:37:47;3.28;;;1.40;;
55114;SDS011;41010;53.252;5.786;2024-02-26T07:40:15;3.25;;;1.38;;
55114;SDS011;41010;53.252;5.786;2024-02-26T07:42:43;3.85;;;1.60;;
55114;SDS011;41010;53.252;5.786;2024-02-26T07:45:10;8.65;;;1.60;;
55114;SDS011;41010;53.252;5.786;2024-02-26T07:47:37;4.35;;;1.40;;
55114;SDS011;41010;53.252;5.786;2024-02-26T07:50:08;3.85;;;1.60;;
55114;SDS011;41010;53.252;5.786;2024-02-26T07:52:37;3.25;;;1.70;;
55114;SDS011;41010;53.252;5.786;2024-02-26T07:55:04;3.13;;;1.50;;
55114;SDS011;41010;53.252;5.786;2024-02-26T07:57:32;5.80;;;1.90;;
55114;SDS011;41010;53.252;5.786;2024-02-26T07:59:58;3.65;;;2.13;;
55114;SDS011;41010;53.252;5.786;2024-02-26T08:02:26;3.03;;;1.65;;
55114;SDS011;41010;53.252;5.786;2024-02-26T08:04:56;6.00;;;1.77;;
55114;SDS011;41010;53.252;5.786;2024-02-26T08:07:24;4.72;;;1.85;;
55114;SDS011;41010;53.252;5.786;2024-02-26T08:09:52;6.18;;;1.75;;
55114;SDS011;41010;53.252;5.786;2024-02-26T08:12:19;6.13;;;2.20;;
55114;SDS011;41010;53.252;5.786;2024-02-26T08:14:46;3.90;;;1.85;;
55114;SDS011;41010;53.252;5.786;2024-02-26T08:17:13;7.95;;;2.33;;
55114;SDS011;41010;53.252;5.786;2024-02-26T08:19:41;6.57;;;2.30;;
55114;SDS011;41010;53.252;5.786;2024-02-26T08:22:08;4.97;;;2.00;;
55114;SDS011;41010;53.252;5.786;2024-02-26T08:24:42;9.60;;;2.10;;
55114;SDS011;41010;53.252;5.786;2024-02-26T08:27:09;6.82;;;2.05;;
55114;SDS011;41010;53.252;5.786;2024-02-26T08:29:36;6.35;;;1.92;;
55114;SDS011;41010;53.252;5.786;2024-02-26T08:32:04;5.93;;;2.08;;
55114;SDS011;41010;53.252;5.786;2024-02-26T08:34:32;4.05;;;1.75;;
55114;SDS011;41010;53.252;5.786;2024-02-26T08:36:59;5.28;;;1.77;;
55114;SDS011;41010;53.252;5.786;2024-02-26T08:39:27;4.43;;;1.73;;
55114;SDS011;41010;53.252;5.786;2024-02-26T08:41:55;4.82;;;1.70;;
55114;SDS011;41010;53.252;5.786;2024-02-26T08:44:22;6.40;;;1.90;;
55114;SDS011;41010;53.252;5.786;2024-02-26T08:46:51;4.32;;;1.88;;
55114;SDS011;41010;53.252;5.786;2024-02-26T08:49:18;9.48;;;2.15;;
55114;SDS011;41010;53.252;5.786;2024-02-26T08:51:48;7.15;;;2.20;;
55114;SDS011;41010;53.252;5.786;2024-02-26T08:54:14;7.32;;;1.83;;
55114;SDS011;41010;53.252;5.786;2024-02-26T08:56:41;4.32;;;1.38;;
55114;SDS011;41010;53.252;5.786;2024-02-26T08:59:10;3.08;;;1.65;;
55114;SDS011;41010;53.252;5.786;2024-02-26T09:01:37;4.03;;;1.10;;
55114;SDS011;41010;53.252;5.786;2024-02-26T09:04:05;4.68;;;1.48;;
55114;SDS011;41010;53.252;5.786;2024-02-26T09:06:32;5.57;;;1.40;;
55114;SDS011;41010;53.252;5.786;2024-02-26T09:08:59;10.18;;;2.63;;
55114;SDS011;41010;53.252;5.786;2024-02-26T09:11:28;4.95;;;2.20;;
55114;SDS011;41010;53.252;5.786;2024-02-26T09:13:56;5.15;;;1.52;;
55114;SDS011;41010;53.252;5.786;2024-02-26T09:16:25;3.50;;;1.60;;
55114;SDS011;41010;53.252;5.786;2024-02-26T09:18:52;4.25;;;1.27;;
55114;SDS011;41010;53.252;5.786;2024-02-26T09:21:20;6.32;;;1.52;;
55114;SDS011;41010;53.252;5.786;2024-02-26T09:23:49;3.85;;;1.90;;
55114;SDS011;41010;53.252;5.786;2024-02-26T09:26:16;4.50;;;1.30;;
55114;SDS011;41010;53.252;5.786;2024-02-26T09:28:44;5.05;;;1.10;;
55114;SDS011;41010;53.252;5.786;2024-02-26T09:31:11;3.17;;;1.08;;
55114;SDS011;41010;53.252;5.786;2024-02-26T09:33:42;3.78;;;1.48;;
55114;SDS011;41010;53.252;5.786;2024-02-26T09:36:09;3.60;;;1.10;;
55114;SDS011;41010;53.252;5.786;2024-02-26T09:38:37;12.10;;;2.33;;
55114;SDS011;41010;53.252;5.786;2024-02-26T09:41:05;2.08;;;1.10;;
55114;SDS011;41010;53.252;5.786;2024-02-26T09:43:33;4.68;;;1.27;;
55114;SDS011;41010;53.252;5.786;2024-02-26T09:46:01;4.05;;;1.40;;
55114;SDS011;41010;53.252;5.786;2024-02-26T09:48:29;6.00;;;1.20;;
55114;SDS011;41010;53.252;5.786;2024-02-26T09:50:57;3.88;;;1.38;;
55114;SDS011;41010;53.252;5.786;2024-02-26T09:53:25;4.18;;;1.50;;
55114;SDS011;41010;53.252;5.786;2024-02-26T09:55:52;7.40;;;1.75;;
55114;SDS011;41010;53.252;5.786;2024-02-26T09:58:19;4.50;;;1.00;;
55114;SDS011;41010;53.252;5.786;2024-02-26T10:00:50;5.38;;;0.90;;
55114;SDS011;41010;53.252;5.786;2024-02-26T10:03:18;4.45;;;0.90;;
55114;SDS011;41010;53.252;5.786;2024-02-26T10:05:46;6.18;;;1.00;;
55114;SDS011;41010;53.252;5.786;2024-02-26T10:08:17;5.40;;;1.05;;
55114;SDS011;41010;53.252;5.786;2024-02-26T10:10:47;7.35;;;1.30;;
55114;SDS011;41010;53.252;5.786;2024-02-26T10:13:14;4.30;;;1.10;;
55114;SDS011;41010;53.252;5.786;2024-02-26T10:15:42;5.38;;;1.13;;
55114;SDS011;41010;53.252;5.786;2024-02-26T10:18:09;3.28;;;1.00;;
55114;SDS011;41010;53.252;5.786;2024-02-26T10:20:36;6.15;;;1.02;;
55114;SDS011;41010;53.252;5.786;2024-02-26T10:23:04;3.95;;;2.17;;
55114;SDS011;41010;53.252;5.786;2024-02-26T10:25:32;3.90;;;1.20;;
55114;SDS011;41010;53.252;5.786;2024-02-26T10:28:00;5.47;;;1.00;;
55114;SDS011;41010;53.252;5.786;2024-02-26T10:30:28;3.50;;;1.30;;
55114;SDS011;41010;53.252;5.786;2024-02-26T10:32:56;6.22;;;1.48;;
55114;SDS011;41010;53.252;5.786;2024-02-26T10:35:23;5.30;;;1.30;;
55114;SDS011;41010;53.252;5.786;2024-02-26T10:37:51;6.15;;;1.30;;
55114;SDS011;41010;53.252;5.786;2024-02-26T10:40:19;6.10;;;2.28;;
55114;SDS011;41010;53.252;5.786;2024-02-26T10:42:47;5.72;;;1.55;;
55114;SDS011;41010;53.252;5.786;2024-02-26T10:45:15;7.30;;;1.63;;
55114;SDS011;41010;53.252;5.786;2024-02-26T10:47:42;4.30;;;2.33;;
55114;SDS011;41010;53.252;5.786;2024-02-26T10:50:09;9.43;;;1.80;;
55114;SDS011;41010;53.252;5.786;2024-02-26T10:52:40;4.40;;;1.73;;
55114;SDS011;41010;53.252;5.786;2024-02-26T10:55:08;6.97;;;2.05;;
55114;SDS011;41010;53.252;5.786;2024-02-26T10:57:39;6.00;;;2.05;;
55114;SDS011;41010;53.252;5.786;2024-02-26T11:00:10;6.20;;;1.92;;
55114;SDS011;41010;53.252;5.786;2024-02-26T11:02:37;6.30;;;1.50;;
55114;SDS011;41010;53.252;5.786;2024-02-26T11:05:05;7.15;;;1.90;;
55114;SDS011;41010;53.252;5.786;2024-02-26T11:07:33;7.05;;;2.40;;
55114;SDS011;41010;53.252;5.786;2024-02-26T11:10:02;6.50;;;1.73;;
55114;SDS011;41010;53.252;5.786;2024-02-26T11:12:30;5.22;;;1.90;;
55114;SDS011;41010;53.252;5.786;2024-02-26T11:14:58;6.35;;;1.70;;
55114;SDS011;41010;53.252;5.786;2024-02-26T11:17:28;5.35;;;1.65;;
55114;SDS011;41010;53.252;5.786;2024-02-26T11:19:57;8.57;;;1.75;;
55114;SDS011;41010;53.252;5.786;2024-02-26T11:22:25;6.10;;;1.70;;
55114;SDS011;41010;53.252;5.786;2024-02-26T11:24:52;10.70;;;2.20;;
55114;SDS011;41010;53.252;5.786;2024-02-26T11:27:23;8.80;;;2.10;;
55114;SDS011;41010;53.252;5.786;2024-02-26T11:29:52;6.72;;;1.90;;
55114;SDS011;41010;53.252;5.786;2024-02-26T11:32:19;9.25;;;2.10;;
55114;SDS011;41010;53.252;5.786;2024-02-26T11:34:48;6.95;;;2.53;;
55114;SDS011;41010;53.252;5.786;2024-02-26T11:37:16;5.18;;;1.73;;
55114;SDS011;41010;53.252;5.786;2024-02-26T11:39:44;3.80;;;1.75;;
55114;SDS011;41010;53.252;5.786;2024-02-26T11:42:13;7.35;;;1.90;;
55114;SDS011;41010;53.252;5.786;2024-02-26T11:44:41;4.18;;;1.70;;
55114;SDS011;41010;53.252;5.786;2024-02-26T11:47:11;4.68;;;1.90;;
55114;SDS011;41010;53.252;5.786;2024-02-26T11:49:38;8.23;;;1.63;;
55114;SDS011;41010;53.252;5.786;2024-02-26T11:52:08;7.35;;;2.08;;
55114;SDS011;41010;53.252;5.786;2024-02-26T11:54:45;12.18;;;2.40;;
55114;SDS011;41010;53.252;5.786;2024-02-26T11:57:25;12.35;;;2.40;;
55114;SDS011;41010;53.252;5.786;2024-02-26T11:59:54;10.15;;;2.20;;
55114;SDS011;41010;53.252;5.786;2024-02-26T12:02:40;6.88;;;2.25;;
55114;SDS011;41010;53.252;5.786;2024-02-26T12:05:09;7.40;;;2.00;;
55114;SDS011;41010;53.252;5.786;2024-02-26T12:07:41;9.00;;;1.77;;
55114;SDS011;41010;53.252;5.786;2024-02-26T12:10:13;7.20;;;1.98;;
55114;SDS011;41010;53.252;5.786;2024-02-26T12:12:41;4.82;;;1.52;;
55114;SDS011;41010;53.252;5.786;2024-02-26T12:15:09;6.97;;;1.50;;
55114;SDS011;41010;53.252;5.786;2024-02-26T12:17:37;9.20;;;1.55;;
55114;SDS011;41010;53.252;5.786;2024-02-26T12:20:08;8.68;;;1.10;;
55114;SDS011;41010;53.252;5.786;2024-02-26T12:22:36;6.50;;;1.27;;
55114;SDS011;41010;53.252;5.786;2024-02-26T12:25:06;7.55;;;1.42;;
55114;SDS011;41010;53.252;5.786;2024-02-26T12:27:35;9.10;;;1.23;;
55114;SDS011;41010;53.252;5.786;2024-02-26T12:30:03;4.60;;;1.00;;
55114;SDS011;41010;53.252;5.786;2024-02-26T12:32:31;8.15;;;1.60;;
55114;SDS011;41010;53.252;5.786;2024-02-26T12:34:58;7.50;;;1.52;;
55114;SDS011;41010;53.252;5.786;2024-02-26T12:37:26;6.32;;;1.40;;
55114;SDS011;41010;53.252;5.786;2024-02-26T12:39:54;4.05;;;1.20;;
55114;SDS011;41010;53.252;5.786;2024-02-26T12:42:22;5.50;;;1.30;;
55114;SDS011;41010;53.252;5.786;2024-02-26T12:44:50;9.82;;;1.35;;
55114;SDS011;41010;53.252;5.786;2024-02-26T12:47:17;4.90;;;1.23;;
55114;SDS011;41010;53.252;5.786;2024-02-26T12:49:46;3.97;;;1.15;;
55114;SDS011;41010;53.252;5.786;2024-02-26T12:52:14;4.00;;;1.40;;
55114;SDS011;41010;53.252;5.786;2024-02-26T12:54:41;5.20;;;1.75;;
55114;SDS011;41010;53.252;5.786;2024-02-26T12:57:09;5.15;;;1.77;;
55114;SDS011;41010;53.252;5.786;2024-02-26T12:59:38;9.60;;;1.75;;
55114;SDS011;41010;53.252;5.786;2024-02-26T13:02:05;4.53;;;1.42;;
55114;SDS011;41010;53.252;5.786;2024-02-26T13:04:34;4.20;;;1.70;;
55114;SDS011;41010;53.252;5.786;2024-02-26T13:07:03;5.45;;;1.67;;
55114;SDS011;41010;53.252;5.786;2024-02-26T13:09:32;7.93;;;1.90;;
55114;SDS011;41010;53.252;5.786;2024-02-26T13:12:00;8.18;;;1.25;;
55114;SDS011;41010;53.252;5.786;2024-02-26T13:14:27;6.85;;;1.38;;
55114;SDS011;41010;53.252;5.786;2024-02-26T13:16:58;4.47;;;1.23;;
55114;SDS011;41010;53.252;5.786;2024-02-26T13:19:25;8.38;;;2.05;;
55114;SDS011;41010;53.252;5.786;2024-02-26T13:21:53;8.48;;;1.92;;
55114;SDS011;41010;53.252;5.786;2024-02-26T13:24:20;6.72;;;1.33;;
55114;SDS011;41010;53.252;5.786;2024-02-26T13:26:53;4.43;;;1.42;;
55114;SDS011;41010;53.252;5.786;2024-02-26T13:29:21;4.47;;;1.30;;
55114;SDS011;41010;53.252;5.786;2024-02-26T13:31:53;6.07;;;1.33;;
55114;SDS011;41010;53.252;5.786;2024-02-26T13:34:25;8.45;;;1.50;;
55114;SDS011;41010;53.252;5.786;2024-02-26T13:36:53;4.38;;;1.30;;
55114;SDS011;41010;53.252;5.786;2024-02-26T13:39:23;4.43;;;1.20;;
55114;SDS011;41010;53.252;5.786;2024-02-26T13:41:51;7.88;;;1.80;;
55114;SDS011;41010;53.252;5.786;2024-02-26T13:44:18;4.07;;;1.60;;
55114;SDS011;41010;53.252;5.786;2024-02-26T13:46:46;7.20;;;1.42;;
55114;SDS011;41010;53.252;5.786;2024-02-26T13:49:14;5.53;;;1.10;;
55114;SDS011;41010;53.252;5.786;2024-02-26T13:51:43;5.85;;;1.00;;
55114;SDS011;41010;53.252;5.786;2024-02-26T13:54:10;5.70;;;1.10;;
55114;SDS011;41010;53.252;5.786;2024-02-26T13:56:38;4.82;;;1.10;;
55114;SDS011;41010;53.252;5.786;2024-02-26T13:59:06;2.90;;;0.75;;
55114;SDS011;41010;53.252;5.786;2024-02-26T14:01:33;4.60;;;0.85;;
55114;SDS011;41010;53.252;5.786;2024-02-26T14:04:00;7.07;;;1.40;;
55114;SDS011;41010;53.252;5.786;2024-02-26T14:06:29;3.05;;;1.00;;
55114;SDS011;41010;53.252;5.786;2024-02-26T14:08:58;4.22;;;1.00;;
55114;SDS011;41010;53.252;5.786;2024-02-26T14:11:25;4.95;;;1.08;;
55114;SDS011;41010;53.252;5.786;2024-02-26T14:13:54;3.08;;;1.00;;
55114;SDS011;41010;53.252;5.786;2024-02-26T14:16:21;3.08;;;0.70;;
55114;SDS011;41010;53.252;5.786;2024-02-26T14:18:48;2.75;;;1.10;;
55114;SDS011;41010;53.252;5.786;2024-02-26T14:21:16;4.82;;;1.05;;
55114;SDS011;41010;53.252;5.786;2024-02-26T14:23:43;3.28;;;1.00;;
55114;SDS011;41010;53.252;5.786;2024-02-26T14:26:12;8.05;;;0.90;;
55114;SDS011;41010;53.252;5.786;2024-02-26T14:28:39;2.90;;;0.70;;
55114;SDS011;41010;53.252;5.786;2024-02-26T14:31:06;3.08;;;0.70;;
55114;SDS011;41010;53.252;5.786;2024-02-26T14:33:37;3.90;;;0.63;;
55114;SDS011;41010;53.252;5.786;2024-02-26T14:36:06;6.00;;;1.00;;
55114;SDS011;41010;53.252;5.786;2024-02-26T14:38:33;3.72;;;0.80;;
55114;SDS011;41010;53.252;5.786;2024-02-26T14:41:01;3.70;;;0.80;;
55114;SDS011;41010;53.252;5.786;2024-02-26T14:43:30;3.25;;;0.60;;
55114;SDS011;41010;53.252;5.786;2024-02-26T14:45:57;6.82;;;0.70;;
55114;SDS011;41010;53.252;5.786;2024-02-26T14:48:25;2.80;;;0.63;;
55114;SDS011;41010;53.252;5.786;2024-02-26T14:50:53;1.10;;;0.45;;
55114;SDS011;41010;53.252;5.786;2024-02-26T14:56:17;2.35;;;0.82;;